Time;durP1;ratioP1;P1;durP2;ratioP2;P2;SDS_P1;SDS_P2;PMS_P1;PMS_P2;Temp;Humidity;BMP_temperature;BMP_pressure;BME280_temperature;BME280_humidity;BME280_pressure;Samples;Min_cycle;Max_cycle;Signal;HPM_P1;HPM_P2
2021/03/12 00:06:15;;;;;;;20.80;2.85;;;6.90;88.00;;;;;;6165834;23;20074;-92
2021/03/12 00:09:25;;;;;;;18.95;2.60;;;6.90;87.70;;;;;;6171963;23;20047;-91
2021/03/12 00:15:22;;;;;;;14.20;2.85;;;6.90;87.90;;;;;;6217218;23;20027;-92
2021/03/12 00:21:00;;;;;;;13.85;2.28;;;6.90;88.00;;;;;;6217228;23;20019;-92
2021/03/12 00:27:46;;;;;;;14.93;2.17;;;6.90;87.60;;;;;;6217486;23;20058;-93
2021/03/12 00:34:13;;;;;;;18.08;2.60;;;6.90;87.30;;;;;;6216160;23;20024;-92
2021/03/12 00:46:57;;;;;;;18.73;2.65;;;6.80;87.10;;;;;;6125532;23;20041;-92
2021/03/12 00:50:20;;;;;;;20.85;2.85;;;6.80;87.20;;;;;;6124740;23;20445;-93
2021/03/12 00:52:51;;;;;;;18.52;2.33;;;6.80;87.20;;;;;;6125000;23;20113;-92
2021/03/12 01:01:31;;;;;;;16.52;2.08;;;6.80;87.40;;;;;;6242316;22;20028;-92
2021/03/12 01:11:42;;;;;;;15.23;2.97;;;6.80;87.40;;;;;;6096133;23;20038;-91
2021/03/12 01:14:23;;;;;;;17.15;2.67;;;6.70;87.30;;;;;;6095815;23;20042;-91
2021/03/12 01:16:52;;;;;;;12.77;2.03;;;6.70;87.10;;;;;;6095606;23;20377;-91
2021/03/12 01:20:10;;;;;;;16.60;2.80;;;6.70;87.10;;;;;;6095416;23;20025;-92
2021/03/12 01:30:00;;;;;;;12.60;2.20;;;6.70;87.20;;;;;;5954221;24;20084;-91
2021/03/12 01:39:57;;;;;;;12.00;2.05;;;6.60;87.30;;;;;;6198890;22;20028;-92
2021/03/12 01:42:59;;;;;;;13.57;2.20;;;6.60;87.60;;;;;;6229596;23;20107;-91
2021/03/12 01:45:53;;;;;;;14.00;2.42;;;6.60;87.60;;;;;;6186646;23;20029;-91
2021/03/12 01:48:53;;;;;;;16.65;2.15;;;6.60;87.40;;;;;;6188274;23;20059;-92
2021/03/12 01:51:42;;;;;;;15.70;2.70;;;6.60;87.40;;;;;;6188180;23;20024;-90
2021/03/12 01:54:21;;;;;;;18.63;2.33;;;6.60;87.60;;;;;;6188961;23;20021;-91
2021/03/12 01:57:37;;;;;;;12.30;2.30;;;6.50;87.10;;;;;;6188695;23;20017;-91
2021/03/12 02:06:23;;;;;;;9.98;1.90;;;6.50;87.50;;;;;;6189130;23;20036;-91
2021/03/12 02:09:59;;;;;;;;;;;;;;;;;;;;;
2021/03/12 02:12:27;;;;;;;12.05;2.28;;;6.50;87.60;;;;;;6181630;23;20044;-91
2021/03/12 02:15:38;;;;;;;;;;;;;;;;;;;;;
2021/03/12 02:19:14;;;;;;;11.53;2.27;;;6.40;87.70;;;;;;6187558;23;20025;-91
2021/03/12 02:22:18;;;;;;;15.52;2.58;;;6.50;87.80;;;;;;6188762;23;20020;-90
2021/03/12 02:35:21;;;;;;;8.80;1.88;;;6.40;87.60;;;;;;6039752;23;20022;-92
2021/03/12 02:38:31;;;;;;;12.00;2.17;;;6.40;87.30;;;;;;6040395;23;20023;-90
2021/03/12 02:41:11;;;;;;;;;;;;;;;;;;;;;
2021/03/12 02:56:55;;;;;;;14.43;2.30;;;6.10;87.10;;;;;;6154989;23;19911;-91
2021/03/12 02:59:31;;;;;;;13.38;1.90;;;6.10;87.60;;;;;;6221180;23;20032;-92
2021/03/12 03:12:24;;;;;;;13.40;2.25;;;6.10;87.80;;;;;;6156575;23;20056;-91
2021/03/12 03:20:05;;;;;;;13.13;2.20;;;6.00;88.10;;;;;;6218546;23;20054;-91
2021/03/12 03:23:55;;;;;;;17.02;2.30;;;6.00;88.10;;;;;;6216281;23;20027;-92
2021/03/12 03:26:45;;;;;;;;;;;;;;;;;;;;;
2021/03/12 03:29:54;;;;;;;13.75;2.10;;;6.00;88.10;;;;;;6069812;23;20023;-92
2021/03/12 03:33:00;;;;;;;18.25;2.53;;;5.90;88.10;;;;;;6072217;23;20053;-91
2021/03/12 03:35:29;;;;;;;12.75;2.30;;;5.90;87.70;;;;;;6155523;23;20056;-91
2021/03/12 03:38:21;;;;;;;14.70;2.58;;;5.90;88.00;;;;;;6156494;23;20014;-91
2021/03/12 03:41:57;;;;;;;13.57;1.73;;;5.90;88.20;;;;;;6160709;23;20136;-91
2021/03/12 03:45:00;;;;;;;11.73;2.10;;;5.80;88.10;;;;;;6153150;23;20022;-91
2021/03/12 03:47:56;;;;;;;10.02;1.85;;;5.80;87.90;;;;;;6095323;23;20046;-91
2021/03/12 03:50:32;;;;;;;12.52;2.13;;;5.80;88.10;;;;;;6095565;23;20106;-92
2021/03/12 03:53:20;;;;;;;12.48;2.00;;;5.80;88.20;;;;;;6096923;23;20085;-93
2021/03/12 03:56:32;;;;;;;14.48;2.40;;;5.80;88.40;;;;;;6096586;23;20027;-91
2021/03/12 03:59:42;;;;;;;;;;;;;;;;;;;;;
2021/03/12 04:02:30;;;;;;;17.55;2.20;;;5.80;88.30;;;;;;6094506;23;20395;-92
2021/03/12 04:05:32;;;;;;;10.98;1.90;;;5.70;88.20;;;;;;6096824;23;20022;-92
2021/03/12 04:16:55;;;;;;;14.85;2.28;;;5.60;88.30;;;;;;6208371;22;20028;-91
2021/03/12 04:27:23;;;;;;;11.00;2.35;;;5.60;89.10;;;;;;6218315;23;20016;-92
2021/03/12 04:32:30;;;;;;;20.00;2.08;;;5.60;88.60;;;;;;6221477;23;20032;-90
2021/03/12 04:35:09;;;;;;;15.18;2.03;;;5.60;88.40;;;;;;6230473;23;20013;-91
2021/03/12 04:37:54;;;;;;;13.88;2.28;;;5.60;88.50;;;;;;6221103;23;20021;-93
2021/03/12 04:40:42;;;;;;;15.23;2.60;;;5.50;88.70;;;;;;6216640;23;20479;-93
2021/03/12 04:43:45;;;;;;;14.55;2.28;;;5.50;88.60;;;;;;6096459;23;20104;-94
2021/03/12 04:47:01;;;;;;;16.52;2.58;;;5.50;88.60;;;;;;6106777;23;20019;-90
2021/03/12 04:49:55;;;;;;;15.02;2.38;;;5.50;88.70;;;;;;6217697;23;20433;-90
2021/03/12 05:00:02;;;;;;;13.02;2.45;;;5.40;89.40;;;;;;6218084;23;20015;-91
2021/03/12 05:02:47;;;;;;;10.77;2.28;;;5.40;88.70;;;;;;6216270;23;20020;-91
2021/03/12 05:06:00;;;;;;;15.00;2.15;;;5.40;88.40;;;;;;6216544;23;20024;-89
2021/03/12 05:12:34;;;;;;;13.10;2.08;;;5.30;88.60;;;;;;6212885;23;20024;-94
2021/03/12 05:15:04;;;;;;;15.02;2.28;;;5.30;88.60;;;;;;6215272;23;20016;-91
2021/03/12 05:20:01;;;;;;;15.68;2.25;;;5.30;89.30;;;;;;6187254;23;20449;-93
2021/03/12 05:22:28;;;;;;;15.10;2.33;;;5.30;89.00;;;;;;6190067;23;20028;-94
2021/03/12 05:24:57;;;;;;;15.75;2.30;;;5.30;89.30;;;;;;6196627;23;20017;-89
2021/03/12 05:27:56;;;;;;;12.00;1.80;;;5.30;89.10;;;;;;6198833;23;20469;-90
2021/03/12 05:30:31;;;;;;;13.45;2.30;;;5.30;89.40;;;;;;6193054;23;20025;-92
2021/03/12 05:32:57;;;;;;;16.05;2.10;;;5.30;89.20;;;;;;6193714;23;20037;-88
2021/03/12 05:35:55;;;;;;;16.55;2.08;;;5.30;89.30;;;;;;6190377;23;20044;-89
2021/03/12 05:38:33;;;;;;;16.35;2.40;;;5.40;89.50;;;;;;6193960;23;20017;-90
2021/03/12 05:41:01;;;;;;;13.55;2.22;;;5.30;89.30;;;;;;6194044;23;20040;-91
2021/03/12 05:43:27;;;;;;;13.57;2.38;;;5.30;89.50;;;;;;6192100;23;20024;-90
2021/03/12 05:45:52;;;;;;;15.25;2.05;;;5.30;89.40;;;;;;6194969;23;20021;-93
2021/03/12 06:06:05;;;;;;;18.85;2.45;;;5.40;90.30;;;;;;6215685;23;20017;-93
2021/03/12 06:15:22;;;;;;;13.63;2.42;;;5.40;90.00;;;;;;6220283;23;20048;-88
2021/03/12 06:17:50;;;;;;;13.63;2.40;;;5.40;90.00;;;;;;6190418;23;20135;-89
2021/03/12 06:20:20;;;;;;;18.38;2.58;;;5.40;89.80;;;;;;6227631;23;20082;-90
2021/03/12 06:31:02;;;;;;;15.60;2.50;;;5.50;90.00;;;;;;6221383;23;20032;-89
2021/03/12 06:54:32;;;;;;;15.82;2.78;;;5.60;90.10;;;;;;6217736;23;20035;-89
2021/03/12 06:58:07;;;;;;;20.90;2.58;;;5.60;90.00;;;;;;6247208;23;20407;-89
2021/03/12 07:04:15;;;;;;;20.55;2.65;;;5.60;90.00;;;;;;6254304;23;19916;-91
2021/03/12 07:07:04;;;;;;;16.75;2.80;;;5.60;90.00;;;;;;6257021;23;20020;-89
2021/03/12 07:09:33;;;;;;;18.02;2.72;;;5.60;89.90;;;;;;6101260;23;20027;-92
2021/03/12 07:12:39;;;;;;;20.50;3.03;;;5.70;90.00;;;;;;6100615;23;20057;-91
2021/03/12 07:15:33;;;;;;;18.77;2.63;;;5.70;90.00;;;;;;6226672;23;20016;-94
2021/03/12 07:17:59;;;;;;;15.70;2.90;;;5.70;90.00;;;;;;6254077;23;20080;-93
2021/03/12 07:20:58;;;;;;;17.65;2.60;;;5.70;89.90;;;;;;6254171;23;20020;-92
2021/03/12 07:23:41;;;;;;;14.02;2.75;;;5.70;90.30;;;;;;6253223;23;20016;-94
2021/03/12 07:26:58;;;;;;;20.15;3.08;;;5.80;90.00;;;;;;6228134;23;20086;-93
2021/03/12 07:29:31;;;;;;;16.15;2.63;;;5.80;89.90;;;;;;6252557;23;20040;-93
2021/03/12 07:32:01;;;;;;;16.17;2.40;;;5.80;90.20;;;;;;6253631;23;20016;-93
2021/03/12 07:34:31;;;;;;;18.13;2.65;;;5.80;89.70;;;;;;6230198;23;20081;-93
2021/03/12 07:36:59;;;;;;;14.70;2.53;;;5.90;89.70;;;;;;6223852;23;20020;-94
2021/03/12 07:39:36;;;;;;;13.95;2.47;;;5.90;89.70;;;;;;6224073;23;20017;-93
2021/03/12 07:42:03;;;;;;;18.25;2.92;;;5.90;89.50;;;;;;6223885;23;20028;-93
2021/03/12 07:44:38;;;;;;;24.42;3.00;;;6.00;89.40;;;;;;6223892;23;20333;-92
2021/03/12 07:47:04;;;;;;;16.38;2.80;;;6.00;89.30;;;;;;6223375;23;20096;-93
2021/03/12 07:49:30;;;;;;;17.83;2.50;;;6.00;89.30;;;;;;6222041;23;20020;-94
2021/03/12 07:52:07;;;;;;;;;;;;;;;;;;;;;
2021/03/12 07:54:52;;;;;;;18.33;3.55;;;6.10;89.30;;;;;;6161005;23;20035;-93
2021/03/12 08:01:14;;;;;;;;;;;;;;;;;;;;;
2021/03/12 08:04:47;;;;;;;14.07;2.53;;;6.20;89.10;;;;;;6225612;23;20079;-92
2021/03/12 08:07:59;;;;;;;16.63;3.22;;;6.30;89.10;;;;;;6226199;23;20020;-93
2021/03/12 08:11:04;;;;;;;18.05;2.30;;;6.30;88.90;;;;;;6220356;23;20074;-92
2021/03/12 08:14:13;;;;;;;13.57;2.67;;;6.40;88.80;;;;;;6097769;23;20065;-92
2021/03/12 08:16:58;;;;;;;14.98;2.95;;;6.50;88.70;;;;;;6096148;23;20018;-89
2021/03/12 08:19:48;;;;;;;17.80;3.20;;;6.60;88.70;;;;;;6073032;23;20099;-92
2021/03/12 08:22:35;;;;;;;13.82;2.53;;;6.60;88.60;;;;;;6096211;23;20515;-92
2021/03/12 08:25:03;;;;;;;19.20;3.03;;;6.60;88.30;;;;;;6096708;23;20018;-89
2021/03/12 08:27:47;;;;;;;22.20;3.03;;;6.70;88.30;;;;;;6097145;23;20022;-91
2021/03/12 08:30:34;;;;;;;17.73;2.75;;;6.80;88.80;;;;;;6193503;23;20021;-91
2021/03/12 08:33:23;;;;;;;16.15;2.83;;;6.80;87.50;;;;;;6218394;23;20024;-86
2021/03/12 08:35:51;;;;;;;18.90;2.80;;;6.90;87.40;;;;;;6158993;23;20017;-87
2021/03/12 08:41:12;;;;;;;18.15;3.13;;;6.90;87.30;;;;;;6215514;23;20437;-87
2021/03/12 08:44:00;;;;;;;19.77;2.80;;;6.90;87.30;;;;;;6214485;23;20024;-88
2021/03/12 08:46:30;;;;;;;19.73;3.05;;;6.90;87.20;;;;;;6215778;23;20464;-88
2021/03/12 08:49:06;;;;;;;15.80;3.08;;;7.00;87.30;;;;;;6215464;23;20020;-89
2021/03/12 08:51:33;;;;;;;19.05;3.35;;;7.00;87.00;;;;;;6214945;23;20063;-86
2021/03/12 08:54:01;;;;;;;20.60;3.03;;;7.00;87.10;;;;;;6215291;23;20070;-88
2021/03/12 08:56:35;;;;;;;17.77;2.85;;;7.00;87.00;;;;;;6215689;23;20524;-88
2021/03/12 09:00:12;;;;;;;16.25;2.55;;;7.10;87.00;;;;;;6210137;23;20059;-89
2021/03/12 09:03:54;;;;;;;16.10;3.20;;;7.10;86.50;;;;;;6216598;23;20025;-88
2021/03/12 09:15:02;;;;;;;;;;;7.10;86.50;;;;;;6133597;23;20087;-93
2021/03/12 09:32:41;;;;;;;15.93;2.80;;;7.40;86.30;;;;;;6124722;23;20442;-93
2021/03/12 09:42:59;;;;;;;21.33;3.28;;;7.50;85.90;;;;;;6065745;23;20243;-93
2021/03/12 09:45:31;;;;;;;21.15;3.25;;;7.60;86.00;;;;;;6154713;23;20026;-92
2021/03/12 09:47:57;;;;;;;21.95;3.75;;;7.70;85.80;;;;;;6154724;23;20017;-93
2021/03/12 09:50:59;;;;;;;16.85;2.92;;;7.70;85.40;;;;;;6153797;23;20022;-93
2021/03/12 09:53:28;;;;;;;20.50;3.13;;;7.80;85.20;;;;;;6124660;23;20105;-93
2021/03/12 09:55:55;;;;;;;22.30;3.88;;;7.90;85.20;;;;;;6152264;23;20515;-92
2021/03/12 09:59:06;;;;;;;16.48;2.92;;;7.80;84.90;;;;;;6153322;23;20017;-93
2021/03/12 10:01:40;;;;;;;20.48;3.60;;;7.80;84.90;;;;;;6147482;23;20028;-93
2021/03/12 10:08:05;;;;;;;21.15;3.75;;;7.80;85.30;;;;;;6154987;23;20351;-94
2021/03/12 10:10:55;;;;;;;19.45;3.22;;;7.80;85.50;;;;;;6155364;23;20136;-94
2021/03/12 10:13:26;;;;;;;17.42;3.50;;;7.80;85.70;;;;;;6155668;23;20017;-89
2021/03/12 10:15:51;;;;;;;21.90;3.70;;;7.80;85.90;;;;;;6180761;23;20016;-93
2021/03/12 10:19:03;;;;;;;19.98;3.92;;;7.80;85.70;;;;;;6195017;23;20453;-93
2021/03/12 10:21:53;;;;;;;24.85;3.85;;;7.80;85.80;;;;;;6218049;23;20025;-94
2021/03/12 10:24:28;;;;;;;26.50;4.95;;;7.80;86.00;;;;;;6214939;23;20091;-93
2021/03/12 10:27:21;;;;;;;27.58;4.18;;;7.80;85.90;;;;;;6097552;23;20061;-92
2021/03/12 10:29:51;;;;;;;24.48;4.20;;;7.80;86.50;;;;;;6210031;23;20024;-94
2021/03/12 10:32:36;;;;;;;28.55;4.75;;;7.80;86.70;;;;;;6228313;23;20013;-94
2021/03/12 10:38:57;;;;;;;23.05;4.47;;;7.80;86.90;;;;;;6218995;23;20016;-94
2021/03/12 10:41:25;;;;;;;22.40;4.60;;;7.80;86.70;;;;;;6218590;23;20102;-94
2021/03/12 10:43:59;;;;;;;21.00;4.68;;;7.70;87.10;;;;;;6218396;23;20020;-94
2021/03/12 10:46:34;;;;;;;;;;;7.80;87.30;;;;;;6213574;23;20028;-94
2021/03/12 10:49:35;;;;;;;22.77;3.92;;;7.70;87.20;;;;;;6218116;23;19918;-94
2021/03/12 10:52:06;;;;;;;18.75;3.95;;;7.80;87.60;;;;;;6215270;23;20012;-93
2021/03/12 10:54:34;;;;;;;24.58;4.05;;;7.70;87.50;;;;;;6217883;23;20016;-92
2021/03/12 10:57:00;;;;;;;22.95;4.28;;;7.80;87.50;;;;;;6218499;23;20070;-94
2021/03/12 10:59:29;;;;;;;24.65;4.68;;;7.90;87.40;;;;;;6217513;23;20021;-93
2021/03/12 11:01:54;;;;;;;26.95;4.18;;;7.90;87.30;;;;;;6217215;23;20020;-93
2021/03/12 11:04:30;;;;;;;22.85;4.38;;;7.90;87.10;;;;;;6217432;23;20020;-94
2021/03/12 11:06:57;;;;;;;26.95;5.03;;;7.90;87.00;;;;;;6215386;23;20021;-94
2021/03/12 11:09:38;;;;;;;23.60;4.18;;;7.90;87.00;;;;;;6217364;23;20396;-96
2021/03/12 11:12:04;;;;;;;20.98;3.90;;;8.00;86.60;;;;;;6217644;23;20096;-89
2021/03/12 11:14:35;;;;;;;19.80;4.00;;;8.00;87.00;;;;;;6216760;23;20028;-91
2021/03/12 11:17:03;;;;;;;20.85;4.07;;;8.00;86.90;;;;;;6216514;23;20005;-89
2021/03/12 11:19:32;;;;;;;19.85;3.38;;;8.00;87.10;;;;;;6214922;23;20377;-90
2021/03/12 11:21:58;;;;;;;11.52;2.50;;;7.90;87.00;;;;;;6216761;23;20323;-94
2021/03/12 11:24:33;;;;;;;13.25;2.50;;;7.90;87.20;;;;;;6219572;23;20050;-91
2021/03/12 11:27:04;;;;;;;10.00;2.45;;;7.80;87.30;;;;;;6211241;23;20020;-86
2021/03/12 11:29:45;;;;;;;14.68;2.67;;;7.70;87.70;;;;;;6214194;23;20013;-87
2021/03/12 11:32:11;;;;;;;15.05;3.22;;;7.60;88.00;;;;;;6214243;23;20021;-85
2021/03/12 11:34:37;;;;;;;15.75;3.20;;;7.60;88.60;;;;;;6213152;23;20319;-86
2021/03/12 11:42:46;;;;;;;13.23;2.90;;;7.50;89.20;;;;;;6216855;23;20078;-92
2021/03/12 11:45:24;;;;;;;14.68;3.20;;;7.40;89.30;;;;;;6215615;23;20450;-89
2021/03/12 11:47:53;;;;;;;15.45;3.35;;;7.40;89.40;;;;;;6215496;23;20013;-89
2021/03/12 11:50:27;;;;;;;14.32;2.78;;;7.40;89.70;;;;;;6215957;23;20016;-89
2021/03/12 11:52:56;;;;;;;13.80;3.00;;;7.40;90.00;;;;;;6216492;23;20017;-87
2021/03/12 12:02:57;;;;;;;10.57;2.58;;;7.40;90.40;;;;;;6245574;23;20014;-91
2021/03/12 12:05:23;;;;;;;12.25;2.17;;;7.30;90.40;;;;;;6094609;23;20022;-88
2021/03/12 12:07:49;;;;;;;9.63;2.30;;;7.30;90.30;;;;;;6094986;23;20103;-90
2021/03/12 12:10:26;;;;;;;9.02;2.00;;;7.30;90.20;;;;;;6094032;23;20332;-91
2021/03/12 12:13:10;;;;;;;13.85;2.13;;;7.30;90.30;;;;;;6094961;23;20022;-93
2021/03/12 12:15:36;;;;;;;8.80;2.17;;;7.40;90.30;;;;;;6095782;23;20018;-93
2021/03/12 12:48:50;;;;;;;;;;;;;;;;;;;;;
2021/03/12 12:58:59;;;;;;;15.63;3.78;;;8.20;90.20;;;;;;6231976;22;20024;-87
2021/03/12 13:01:27;;;;;;;12.57;3.55;;;8.20;89.90;;;;;;6244459;23;20016;-93
2021/03/12 13:04:47;;;;;;;14.35;3.53;;;8.20;90.00;;;;;;6245055;23;20508;-93
2021/03/12 13:11:21;;;;;;;13.43;3.08;;;8.20;90.00;;;;;;6248561;23;20301;-91
2021/03/12 13:13:50;;;;;;;15.25;2.90;;;8.10;90.00;;;;;;6189688;23;20074;-90
2021/03/12 13:16:19;;;;;;;18.90;4.20;;;8.10;89.80;;;;;;6219134;23;20457;-88
2021/03/12 13:18:47;;;;;;;12.70;3.25;;;8.10;90.00;;;;;;6250791;23;20016;-95
2021/03/12 13:21:25;;;;;;;13.43;3.70;;;8.00;90.00;;;;;;6257449;23;20020;-93
2021/03/12 13:24:17;;;;;;;15.50;3.47;;;8.10;90.20;;;;;;6254063;23;20026;-93
2021/03/12 13:29:57;;;;;;;15.05;3.60;;;8.00;90.30;;;;;;6182791;23;20032;-91
2021/03/12 13:32:28;;;;;;;14.07;3.40;;;8.00;90.30;;;;;;6069543;23;20022;-95
2021/03/12 13:35:21;;;;;;;13.25;2.53;;;8.00;90.20;;;;;;5955829;24;20459;-89
2021/03/12 13:43:53;;;;;;;9.75;2.63;;;8.00;90.00;;;;;;6187571;23;20017;-87
2021/03/12 13:46:18;;;;;;;9.25;2.75;;;7.90;90.00;;;;;;6186855;23;20029;-87
2021/03/12 14:27:30;;;;;;;11.85;4.32;;;7.60;90.90;;;;;;6211380;23;20028;-88
2021/03/12 14:30:53;;;;;;;13.80;3.40;;;7.60;90.90;;;;;;6217054;23;20024;-91
2021/03/12 14:47:55;;;;;;;7.65;1.90;;;7.40;90.60;;;;;;5983926;23;20353;-89
2021/03/12 15:00:13;;;;;;;4.85;1.30;;;7.30;90.70;;;;;;6215759;23;20024;-93
2021/03/12 15:07:21;;;;;;;5.15;1.50;;;7.20;90.80;;;;;;6201680;23;20031;-92
2021/03/12 15:13:59;;;;;;;5.90;1.55;;;7.10;90.60;;;;;;6199366;23;20480;-90
2021/03/12 15:16:26;;;;;;;5.97;1.33;;;7.20;90.50;;;;;;6095810;23;20026;-87
2021/03/12 15:19:01;;;;;;;6.93;1.00;;;7.10;90.40;;;;;;6094496;23;20019;-86
2021/03/12 15:21:37;;;;;;;4.63;1.10;;;7.10;90.40;;;;;;6199330;23;20017;-86
2021/03/12 15:24:31;;;;;;;3.80;0.98;;;7.10;90.50;;;;;;6216511;23;20441;-89
2021/03/12 15:30:17;;;;;;;4.15;0.98;;;7.10;90.50;;;;;;6216945;23;20311;-86
2021/03/12 15:32:45;;;;;;;2.65;0.70;;;7.10;90.50;;;;;;6215334;23;20480;-87
2021/03/12 15:35:24;;;;;;;3.78;0.90;;;7.10;90.50;;;;;;6216269;23;20016;-85
2021/03/12 15:38:58;;;;;;;5.22;1.02;;;7.20;90.60;;;;;;6202499;23;20024;-90
2021/03/12 15:41:44;;;;;;;3.47;0.88;;;7.10;90.30;;;;;;6094200;23;20094;-85
2021/03/12 15:44:16;;;;;;;4.63;0.90;;;7.10;90.20;;;;;;6070779;23;20025;-87
2021/03/12 15:46:52;;;;;;;2.42;0.60;;;7.10;90.40;;;;;;6094950;23;20074;-85
2021/03/12 15:50:17;;;;;;;4.80;0.93;;;7.10;90.30;;;;;;6094720;23;20467;-86
2021/03/12 15:52:54;;;;;;;;;;;7.10;90.30;;;;;;6153949;23;20021;-88
2021/03/12 15:55:31;;;;;;;4.18;1.00;;;7.00;90.10;;;;;;6215322;23;19938;-89
2021/03/12 16:01:38;;;;;;;;;;;;;;;;;;;;;
2021/03/12 16:04:23;;;;;;;4.15;0.80;;;7.10;90.30;;;;;;6215621;23;20091;-87
2021/03/12 16:07:03;;;;;;;6.32;1.00;;;7.10;90.40;;;;;;6216124;23;20020;-87
2021/03/12 16:09:32;;;;;;;5.63;1.15;;;7.10;90.50;;;;;;6212675;23;20035;-88
2021/03/12 16:12:48;;;;;;;5.40;1.25;;;7.10;90.50;;;;;;6216109;23;20338;-85
2021/03/12 16:15:14;;;;;;;4.90;1.00;;;7.20;90.60;;;;;;6153089;23;20341;-86
2021/03/12 16:17:58;;;;;;;5.47;1.10;;;7.20;90.60;;;;;;6216382;23;20013;-86
2021/03/12 16:23:01;;;;;;;9.88;1.50;;;7.20;90.60;;;;;;6198240;22;20374;-95
2021/03/12 16:25:32;;;;;;;5.85;1.35;;;7.20;90.60;;;;;;6244435;22;20020;-92
2021/03/12 16:28:00;;;;;;;5.93;1.33;;;7.20;90.60;;;;;;6241783;22;20028;-85
2021/03/12 16:30:30;;;;;;;9.98;1.42;;;7.20;90.70;;;;;;6244610;23;20012;-87
2021/03/12 17:26:44;;;;;;;26.42;5.22;;;5.50;90.80;;;;;;5214575;27;20993;-88
2021/03/12 17:29:42;;;;;;;31.50;8.13;;;5.60;90.50;;;;;;5194999;27;20049;-92
2021/03/12 17:32:41;;;;;;;26.85;7.18;;;5.70;90.90;;;;;;5099397;27;20055;-91
2021/03/12 17:35:51;;;;;;;26.63;4.90;;;5.70;91.30;;;;;;5201674;27;20050;-95
2021/03/12 17:39:15;;;;;;;15.98;3.15;;;5.80;91.60;;;;;;5121013;27;20129;-95
2021/03/12 17:42:41;;;;;;;13.45;3.00;;;5.90;91.50;;;;;;5197263;27;20042;-93
2021/03/12 17:46:08;;;;;;;9.27;1.98;;;5.80;91.40;;;;;;5196030;27;20511;-92
2021/03/12 17:49:08;;;;;;;;;;;;;;;;;;;;;
2021/03/12 17:51:48;;;;;;;12.13;3.22;;;5.70;91.50;;;;;;5094154;28;20093;-92
2021/03/12 18:12:51;;;;;;;8.18;1.70;;;5.70;91.50;;;;;;5022006;28;20054;-93
2021/03/12 18:16:22;;;;;;;;;;;;;;;;;;;;;
2021/03/12 18:25:20;;;;;;;7.95;1.40;;;5.70;91.30;;;;;;5137920;22;20059;-91
2021/03/12 18:32:31;;;;;;;6.93;1.50;;;5.80;91.10;;;;;;5089854;28;20058;-92
2021/03/12 18:35:48;;;;;;;7.85;1.50;;;5.80;91.10;;;;;;4976401;28;20548;-91
2021/03/12 18:38:23;;;;;;;5.53;1.13;;;5.80;91.00;;;;;;5074142;28;20512;-93
2021/03/12 18:41:13;;;;;;;7.07;1.27;;;5.80;90.90;;;;;;5074970;28;20613;-93
2021/03/12 18:53:52;;;;;;;5.70;1.23;;;5.70;90.80;;;;;;5405136;22;20056;-90
2021/03/12 18:56:23;;;;;;;3.92;1.02;;;5.70;90.70;;;;;;5072302;28;20067;-92
2021/03/12 19:33:52;;;;;;;;;;;;;;;;;;;;;
2021/03/12 19:39:55;;;;;;;18.75;5.82;;;5.70;90.60;;;;;;4965994;28;20051;-87
2021/03/12 19:50:44;;;;;;;10.43;2.40;;;5.60;90.60;;;;;;6025440;22;20458;-90
2021/03/12 19:53:16;;;;;;;10.63;2.90;;;5.70;90.60;;;;;;5022238;28;20046;-91
2021/03/12 19:55:42;;;;;;;11.07;2.88;;;5.70;90.50;;;;;;5027416;28;20050;-88
2021/03/12 19:58:17;;;;;;;9.85;2.60;;;5.70;90.70;;;;;;5025029;28;20104;-87
2021/03/12 20:00:49;;;;;;;8.38;2.17;;;5.60;90.60;;;;;;5014297;28;20054;-88
2021/03/12 20:03:20;;;;;;;13.40;2.90;;;5.60;90.70;;;;;;5015130;28;20049;-88
2021/03/12 20:05:53;;;;;;;9.23;3.25;;;5.60;90.80;;;;;;5023621;28;20087;-87
2021/03/12 20:08:20;;;;;;;14.13;3.03;;;5.60;91.30;;;;;;5013451;28;20042;-86
2021/03/12 20:10:59;;;;;;;13.35;2.70;;;5.60;90.90;;;;;;5019950;28;20087;-86
2021/03/12 20:13:29;;;;;;;;;;;5.60;90.90;;;;;;5019650;28;20050;-86
2021/03/12 20:16:14;;;;;;;14.45;3.10;;;5.60;90.50;;;;;;5018361;28;19921;-85
2021/03/12 20:18:55;;;;;;;13.23;2.83;;;5.60;90.80;;;;;;5019556;28;20124;-86
2021/03/12 20:21:45;;;;;;;13.48;2.78;;;5.70;90.90;;;;;;5015918;28;20115;-86
2021/03/12 20:24:54;;;;;;;12.93;2.53;;;5.60;91.00;;;;;;5018852;28;20045;-86
2021/03/12 20:59:06;;;;;;;12.68;2.45;;;5.60;90.90;;;;;;4959984;28;20158;-86
2021/03/12 21:04:56;;;;;;;5.43;1.10;;;5.60;90.80;;;;;;4953351;28;20073;-88
2021/03/12 21:07:21;;;;;;;8.35;1.55;;;5.60;90.70;;;;;;4952300;29;20518;-87
2021/03/12 21:09:47;;;;;;;8.52;1.75;;;5.50;90.60;;;;;;4952831;29;20048;-87
2021/03/12 21:12:19;;;;;;;6.85;1.70;;;5.50;90.60;;;;;;4955436;28;20039;-87
2021/03/12 21:14:50;;;;;;;7.32;1.88;;;5.40;90.70;;;;;;4955192;28;20063;-87
2021/03/12 21:51:13;;;;;;;8.98;2.50;;;5.20;91.70;;;;;;5029482;28;20404;-90
2021/03/12 22:14:03;;;;;;;10.00;2.63;;;5.00;91.60;;;;;;4327190;22;20058;-90
2021/03/12 22:16:39;;;;;;;8.00;2.47;;;5.00;92.00;;;;;;4983896;28;20076;-91
2021/03/12 22:19:19;;;;;;;9.65;2.65;;;4.90;91.80;;;;;;5017146;28;20081;-91
2021/03/12 22:21:46;;;;;;;14.65;2.70;;;4.90;91.70;;;;;;5017522;28;20066;-89
2021/03/12 22:24:55;;;;;;;11.88;2.53;;;4.90;91.60;;;;;;5026161;28;20059;-90
2021/03/12 22:31:31;;;;;;;14.90;3.30;;;4.90;91.60;;;;;;4921920;28;20052;-90
2021/03/12 22:33:57;;;;;;;20.00;3.50;;;4.90;91.60;;;;;;4997686;28;20049;-89
2021/03/12 22:36:26;;;;;;;15.02;2.95;;;4.90;91.50;;;;;;4991905;28;20046;-91
2021/03/12 22:39:00;;;;;;;22.75;4.15;;;4.90;91.50;;;;;;4997708;28;20142;-90
2021/03/12 22:41:28;;;;;;;22.85;3.65;;;4.90;91.80;;;;;;4996965;28;20057;-90
2021/03/12 22:43:56;;;;;;;26.98;4.78;;;4.90;91.50;;;;;;4997255;28;20220;-90
2021/03/12 22:46:22;;;;;;;22.30;4.35;;;4.90;91.50;;;;;;4997858;28;20054;-90
2021/03/12 22:49:06;;;;;;;24.13;3.80;;;4.90;91.50;;;;;;4995327;28;20097;-88
2021/03/12 22:51:44;;;;;;;17.77;3.58;;;4.90;91.40;;;;;;4977716;28;20410;-90
2021/03/12 22:54:22;;;;;;;18.50;3.67;;;4.90;91.50;;;;;;4989587;28;20074;-88
2021/03/12 22:56:54;;;;;;;26.70;4.28;;;4.90;91.40;;;;;;4996622;28;20042;-90
2021/03/12 22:59:25;;;;;;;24.83;4.50;;;4.90;91.50;;;;;;4996238;28;20112;-88
2021/03/12 23:01:51;;;;;;;21.92;3.95;;;4.90;91.50;;;;;;4996507;28;20054;-89
2021/03/12 23:04:17;;;;;;;27.33;4.40;;;4.90;91.50;;;;;;4995188;28;20560;-88
2021/03/12 23:06:54;;;;;;;20.85;3.60;;;4.90;91.50;;;;;;4995943;28;20126;-88
2021/03/12 23:09:27;;;;;;;28.08;4.60;;;4.90;91.50;;;;;;4994921;28;20082;-90
2021/03/12 23:11:52;;;;;;;24.17;3.78;;;5.00;91.50;;;;;;4976434;28;20201;-89
2021/03/12 23:14:30;;;;;;;28.50;4.38;;;4.90;91.50;;;;;;4976155;28;20058;-90
2021/03/12 23:16:56;;;;;;;18.98;3.42;;;5.00;91.50;;;;;;4975984;28;20082;-88
2021/03/12 23:19:22;;;;;;;23.55;4.22;;;5.00;91.40;;;;;;4983066;28;20455;-88
2021/03/12 23:21:48;;;;;;;28.45;4.53;;;5.00;91.40;;;;;;4995748;28;20055;-88
2021/03/12 23:24:19;;;;;;;25.75;3.88;;;5.00;91.60;;;;;;4994986;28;20489;-87
2021/03/12 23:26:48;;;;;;;23.10;3.50;;;5.10;91.60;;;;;;4994274;28;20050;-88
2021/03/12 23:29:14;;;;;;;25.73;4.13;;;5.10;91.60;;;;;;4995334;28;20092;-88
2021/03/12 23:31:40;;;;;;;26.02;4.05;;;5.10;91.60;;;;;;4994913;28;20458;-88
2021/03/12 23:34:15;;;;;;;33.58;4.82;;;5.10;91.60;;;;;;4995236;28;20092;-88
2021/03/12 23:36:43;;;;;;;31.83;4.53;;;5.10;91.60;;;;;;4995394;28;20046;-88
2021/03/12 23:39:30;;;;;;;26.95;4.45;;;5.20;91.70;;;;;;4994594;28;20077;-88
2021/03/12 23:42:05;;;;;;;26.17;4.30;;;5.10;91.70;;;;;;4995278;28;20130;-87
2021/03/12 23:44:39;;;;;;;29.70;4.20;;;5.20;91.70;;;;;;4993498;28;20104;-88
2021/03/12 23:47:07;;;;;;;32.55;4.80;;;5.20;91.80;;;;;;4994219;28;20512;-89
2021/03/12 23:49:33;;;;;;;36.97;5.22;;;5.20;91.80;;;;;;4994884;28;20042;-87
2021/03/12 23:51:58;;;;;;;38.78;5.65;;;5.20;91.80;;;;;;4994951;28;20053;-87
2021/03/12 23:54:24;;;;;;;34.95;5.47;;;5.20;91.80;;;;;;4993995;28;20430;-87
2021/03/12 23:56:50;;;;;;;29.92;5.18;;;5.30;91.90;;;;;;4993993;28;20050;-87
2021/03/12 23:59:16;;;;;;;25.88;4.57;;;5.30;91.90;;;;;;4994572;28;20486;-88
